Terminal Aerodrome Forecast
Issued by NWS Tampa Bay Area, FL

Home | Current Version | Previous Version | Text Only | Print | Product List | Glossary On
Versions: 1 2 3 4 5 6 7 8 9 10 11 12 13 14 15 16 17
000
FTUS42 KTBW 280522
TAFFMY
TAF
KFMY 280522Z 2806/2906 VRB03KT P6SM FEW030 BKN200
     FM280900 13005KT P6SM VCTS SCT035CB
     FM281200 09005KT P6SM VCTS SCT035CB
     FM281900 00000KT P6SM VCTS SCT040CB BKN200
     FM290000 00000KT P6SM SCT040 BKN200
     FM290400 08006KT P6SM SCT040 BKN200=

USA.gov is the U.S. government's official web portal to all federal, state and local government web resources and services.